Time;durP1;ratioP1;P1;durP2;ratioP2;P2;SDS_P1;SDS_P2;PMS_P1;PMS_P2;Temp;Humidity;BMP_temperature;BMP_pressure;BME280_temperature;BME280_humidity;BME280_pressure;Samples;Min_cycle;Max_cycle;Signal;HPM_P1;HPM_P2
2022/06/08 00:02:11;;;;;;;4.10;3.72;;;;;;;25.45;46.21;100436.81;1725585;81;21017;-85
2022/06/08 00:04:38;;;;;;;5.15;4.20;;;;;;;25.45;46.23;100431.83;1725971;83;21112;-85
2022/06/08 00:07:04;;;;;;;5.05;3.92;;;;;;;25.45;46.24;100429.86;1725664;82;21490;-85
2022/06/08 00:09:31;;;;;;;5.08;3.83;;;;;;;25.44;46.27;100431.02;1756483;80;21062;-84
2022/06/08 00:11:57;;;;;;;4.85;3.90;;;;;;;25.45;46.28;100429.86;1764161;81;21086;-85
2022/06/08 00:14:23;;;;;;;4.08;3.67;;;;;;;25.45;46.30;100424.28;1764228;81;20994;-85
2022/06/08 00:16:50;;;;;;;4.83;3.75;;;;;;;25.45;46.34;100418.71;1763829;81;21160;-85
2022/06/08 00:19:17;;;;;;;5.03;3.77;;;;;;;25.44;46.33;100415.70;1764003;80;21031;-84
2022/06/08 00:21:43;;;;;;;5.50;4.03;;;;;;;25.45;46.34;100408.97;1764174;81;21038;-84
2022/06/08 00:24:10;;;;;;;4.45;3.75;;;;;;;25.44;46.35;100408.73;1730310;80;21001;-84
2022/06/08 00:26:36;;;;;;;5.22;3.98;;;;;;;25.44;46.36;100405.95;1729011;81;21044;-84
2022/06/08 00:29:04;;;;;;;6.75;4.03;;;;;;;25.45;46.37;100412.33;1729310;81;21083;-84
2022/06/08 00:31:31;;;;;;;5.50;4.00;;;;;;;25.44;46.41;100407.34;1728870;81;21032;-84
2022/06/08 00:33:57;;;;;;;6.78;3.92;;;;;;;25.44;46.41;100410.13;1729210;81;22230;-84
2022/06/08 00:36:24;;;;;;;4.28;3.87;;;;;;;25.44;46.44;100406.53;1728889;81;21547;-85
2022/06/08 00:38:51;;;;;;;4.45;3.65;;;;;;;25.44;46.44;100410.13;1730079;81;21096;-84
2022/06/08 00:41:40;;;;;;;4.72;3.98;;;;;;;25.43;46.47;100407.11;1728978;81;21128;-84
2022/06/08 00:44:20;;;;;;;6.08;3.77;;;;;;;25.43;46.49;100402.94;1728749;82;21053;-85
2022/06/08 00:46:46;;;;;;;4.22;3.62;;;;;;;25.43;46.50;100404.33;1728908;81;21637;-85
2022/06/08 00:49:18;;;;;;;4.80;3.72;;;;;;;25.43;46.50;100407.11;1728931;81;21036;-84
2022/06/08 00:51:44;;;;;;;4.80;4.00;;;;;;;25.43;46.51;100407.69;1729202;81;21097;-84
2022/06/08 00:54:16;;;;;;;4.08;3.58;;;;;;;25.42;46.54;100404.09;1729162;81;21108;-84
2022/06/08 00:56:47;;;;;;;6.03;3.75;;;;;;;25.42;46.56;100404.09;1728285;81;20981;-84
2022/06/08 00:59:14;;;;;;;4.53;4.05;;;;;;;25.42;46.58;100408.27;1729391;81;21500;-85
2022/06/08 01:01:40;;;;;;;5.45;3.92;;;;;;;25.41;46.62;100398.32;1729397;81;21114;-84
2022/06/08 01:04:13;;;;;;;3.92;3.40;;;;;;;25.43;46.62;100399.33;1729054;81;21048;-85
2022/06/08 01:06:41;;;;;;;4.37;3.60;;;;;;;25.41;46.63;100394.14;1729823;81;21621;-84
2022/06/08 01:09:16;;;;;;;4.30;3.55;;;;;;;25.42;46.65;100396.31;1729192;81;21033;-84
2022/06/08 01:11:43;;;;;;;5.30;3.55;;;;;;;25.41;46.67;100395.53;1729037;81;21017;-84
2022/06/08 01:14:15;;;;;;;4.55;3.87;;;;;;;25.42;46.68;100385.17;1729429;81;21617;-84
2022/06/08 01:16:57;;;;;;;4.80;3.85;;;;;;;25.42;46.70;100389.36;1729318;81;21512;-85
2022/06/08 01:19:24;;;;;;;5.72;3.60;;;;;;;25.41;46.70;100380.22;1728868;81;22112;-81
2022/06/08 01:21:56;;;;;;;4.70;3.80;;;;;;;25.41;46.70;100372.45;1729193;81;21087;-84
2022/06/08 01:24:23;;;;;;;4.50;3.47;;;;;;;25.40;46.72;100368.84;1728659;81;21021;-84
2022/06/08 01:27:15;;;;;;;6.47;3.85;;;;;;;25.40;46.72;100375.81;1728700;81;21613;-84
2022/06/08 01:30:04;;;;;;;4.87;3.65;;;;;;;25.40;46.75;100377.20;1729150;81;21032;-84
2022/06/08 01:33:00;;;;;;;4.65;3.45;;;;;;;25.40;46.75;100375.00;1728776;81;21159;-84
2022/06/08 01:35:53;;;;;;;4.50;3.47;;;;;;;25.39;46.75;100370.59;1729610;81;21483;-84
2022/06/08 01:38:40;;;;;;;4.53;3.67;;;;;;;25.37;46.74;100369.58;1730708;81;21475;-84
2022/06/08 01:41:23;;;;;;;5.40;3.30;;;;;;;25.37;46.77;100366.80;1706442;81;21076;-83
2022/06/08 01:44:04;;;;;;;4.53;3.45;;;;;;;25.36;46.78;100367.95;1728003;81;21584;-84
2022/06/08 01:46:33;;;;;;;4.22;3.50;;;;;;;25.36;46.81;100369.34;1729309;81;21598;-84
2022/06/08 01:49:25;;;;;;;6.25;4.25;;;;;;;25.36;46.84;100374.92;1728603;81;21008;-84
2022/06/08 01:52:20;;;;;;;5.53;4.00;;;;;;;25.36;46.84;100376.89;1707872;81;21092;-84
2022/06/08 01:55:25;;;;;;;6.08;3.83;;;;;;;25.34;46.83;100374.45;1728958;81;21001;-83
2022/06/08 01:58:17;;;;;;;7.37;3.92;;;;;;;25.35;46.84;100387.22;1729082;81;21096;-83
2022/06/08 02:00:55;;;;;;;4.90;3.87;;;;;;;25.33;46.82;100378.40;1728625;81;21571;-83
2022/06/08 02:03:39;;;;;;;5.28;4.05;;;;;;;25.33;46.82;100374.83;1728933;80;21676;-84
2022/06/08 02:06:16;;;;;;;4.35;3.72;;;;;;;25.33;46.83;100378.40;1728774;81;21076;-84
2022/06/08 02:08:57;;;;;;;4.65;3.60;;;;;;;25.32;46.84;100380.98;1728276;81;21033;-83
2022/06/08 02:11:44;;;;;;;4.55;3.83;;;;;;;25.32;46.83;100379.59;1729198;81;21537;-83
2022/06/08 02:14:21;;;;;;;5.87;3.60;;;;;;;25.32;46.84;100373.20;1730813;81;21120;-84
2022/06/08 02:16:54;;;;;;;5.75;4.00;;;;;;;25.32;46.82;100378.78;1706135;81;21100;-84
2022/06/08 02:19:28;;;;;;;6.55;4.17;;;;;;;25.31;46.84;100377.97;1729138;81;21073;-84
2022/06/08 02:22:00;;;;;;;4.45;3.58;;;;;;;25.31;46.85;100384.92;1728481;81;21049;-83
2022/06/08 02:24:37;;;;;;;5.03;3.60;;;;;;;25.31;46.84;100379.94;1728111;81;21061;-84
2022/06/08 02:27:11;;;;;;;4.53;3.40;;;;;;;25.32;46.86;100380.17;1707213;81;21310;-84
2022/06/08 02:30:07;;;;;;;4.28;3.70;;;;;;;25.30;46.85;100374.14;1727664;80;21583;-83
2022/06/08 02:35:30;;;;;;;5.20;3.62;;;;;;;25.31;46.83;100383.53;1729113;81;21076;-84
2022/06/08 02:38:10;;;;;;;6.78;3.50;;;;;;;25.30;46.83;100379.13;1728780;82;21013;-84
2022/06/08 02:40:48;;;;;;;5.58;3.62;;;;;;;25.29;46.84;100378.89;1729086;81;21982;-83
2022/06/08 02:43:22;;;;;;;4.37;2.98;;;;;;;25.30;46.83;100383.88;1729050;82;21467;-82
2022/06/08 02:45:54;;;;;;;4.65;3.52;;;;;;;25.29;46.82;100383.08;1727619;81;21025;-83
2022/06/08 02:48:20;;;;;;;4.20;3.50;;;;;;;25.30;46.82;100387.48;1726614;81;21025;-84
2022/06/08 02:50:51;;;;;;;4.47;3.37;;;;;;;25.30;46.81;100385.27;1729375;81;21487;-84
2022/06/08 02:53:30;;;;;;;6.15;3.37;;;;;;;25.29;46.78;100370.55;1728815;81;21049;-84
2022/06/08 02:56:18;;;;;;;5.00;3.50;;;;;;;25.29;46.79;100366.37;1728515;81;21492;-83
2022/06/08 02:59:12;;;;;;;4.08;3.20;;;;;;;25.28;46.78;100361.17;1729625;81;21089;-84
2022/06/08 03:01:47;;;;;;;3.95;3.02;;;;;;;25.28;46.75;100360.59;1728548;81;21816;-84
2022/06/08 03:04:33;;;;;;;5.70;3.10;;;;;;;25.29;46.73;100369.15;1720066;82;21056;-84
2022/06/08 03:07:03;;;;;;;3.62;3.00;;;;;;;25.28;46.72;100378.70;1695667;81;21012;-84
2022/06/08 03:09:30;;;;;;;4.83;3.25;;;;;;;25.28;46.75;100389.02;1728838;81;21103;-83
2022/06/08 03:12:03;;;;;;;5.50;3.37;;;;;;;25.28;46.73;100398.19;1706450;83;20965;-84
2022/06/08 03:14:30;;;;;;;4.72;3.30;;;;;;;25.28;46.75;100404.34;1728808;81;21586;-84
2022/06/08 03:17:11;;;;;;;5.53;3.40;;;;;;;25.29;46.72;100393.43;1729202;81;21132;-84
2022/06/08 03:19:37;;;;;;;4.40;3.20;;;;;;;25.29;46.75;100400.39;1728849;81;21001;-83
2022/06/08 03:22:04;;;;;;;4.70;3.50;;;;;;;25.28;46.72;100398.19;1729878;81;21037;-84
2022/06/08 03:24:31;;;;;;;4.00;3.02;;;;;;;25.28;46.75;100400.16;1728870;81;21013;-84
2022/06/08 03:27:02;;;;;;;5.17;3.62;;;;;;;25.28;46.72;100395.98;1728909;81;21281;-84
2022/06/08 03:29:28;;;;;;;4.42;3.40;;;;;;;25.28;46.72;100393.20;1729312;81;21064;-84
2022/06/08 03:31:55;;;;;;;5.42;3.30;;;;;;;25.28;46.70;100396.80;1705373;83;21984;-84
2022/06/08 03:34:21;;;;;;;4.58;3.10;;;;;;;25.27;46.72;100393.78;1728717;81;21008;-84
2022/06/08 03:36:48;;;;;;;3.60;3.12;;;;;;;25.28;46.69;100385.66;1728932;81;21090;-83
2022/06/08 03:39:14;;;;;;;4.97;3.52;;;;;;;25.28;46.70;100390.41;1729071;81;21095;-83
2022/06/08 03:41:46;;;;;;;3.65;3.27;;;;;;;25.28;46.67;100395.41;1728881;81;21095;-84
2022/06/08 03:44:13;;;;;;;4.55;3.33;;;;;;;25.28;46.66;100398.77;1729032;81;21597;-84
2022/06/08 03:46:51;;;;;;;4.22;3.42;;;;;;;25.29;46.65;100408.74;1728973;81;21068;-84
2022/06/08 03:49:17;;;;;;;3.52;2.70;;;;;;;25.29;46.65;100416.48;1728526;82;21790;-84
2022/06/08 03:51:44;;;;;;;3.95;3.10;;;;;;;25.29;46.63;100421.27;1729180;81;21022;-83
2022/06/08 03:54:17;;;;;;;4.20;2.98;;;;;;;25.29;46.63;100414.31;1729224;82;21076;-83
2022/06/08 03:56:46;;;;;;;3.62;2.85;;;;;;;25.28;46.64;100419.07;1728890;81;21216;-84
2022/06/08 03:59:13;;;;;;;4.90;3.22;;;;;;;25.28;46.63;100419.07;1729104;81;21458;-83
2022/06/08 04:01:39;;;;;;;3.75;3.08;;;;;;;25.29;46.62;100424.06;1705188;83;21068;-83
2022/06/08 04:04:06;;;;;;;5.08;3.15;;;;;;;25.29;46.61;100430.41;1728729;83;21092;-82
2022/06/08 04:06:34;;;;;;;4.83;3.15;;;;;;;25.27;46.67;100427.19;1729016;81;21080;-82
2022/06/08 04:09:00;;;;;;;5.55;3.83;;;;;;;25.26;46.72;100438.67;1728325;81;21099;-83
2022/06/08 04:11:27;;;;;;;5.03;3.37;;;;;;;25.22;46.87;100439.98;1728936;81;21044;-83
2022/06/08 04:13:53;;;;;;;6.90;3.45;;;;;;;25.20;46.94;100434.55;1729088;81;21471;-84
2022/06/08 04:16:19;;;;;;;5.37;3.40;;;;;;;25.17;47.04;100436.06;1706044;83;21111;-84
2022/06/08 04:18:46;;;;;;;5.30;3.67;;;;;;;25.15;47.16;100427.27;1728149;81;21087;-84
2022/06/08 04:21:19;;;;;;;5.97;3.80;;;;;;;25.14;47.27;100429.02;1722387;81;21153;-83
2022/06/08 04:23:45;;;;;;;6.95;4.30;;;;;;;25.12;47.41;100432.75;1702080;81;20948;-83
2022/06/08 04:26:12;;;;;;;6.42;3.72;;;;;;;25.10;47.55;100436.46;1739983;81;21036;-84
2022/06/08 04:28:38;;;;;;;7.15;3.67;;;;;;;25.06;47.64;100433.59;1739778;82;21027;-84
2022/06/08 04:31:06;;;;;;;6.45;4.05;;;;;;;25.05;47.78;100434.75;1739593;81;21036;-83
2022/06/08 04:33:33;;;;;;;8.50;4.42;;;;;;;25.03;47.91;100437.67;1730338;81;21083;-82
2022/06/08 04:35:59;;;;;;;5.83;3.77;;;;;;;25.00;48.07;100431.64;1727024;80;21131;-83
2022/06/08 04:38:25;;;;;;;8.30;4.00;;;;;;;24.98;48.22;100430.39;1733783;80;21602;-83
2022/06/08 04:40:54;;;;;;;10.38;3.83;;;;;;;24.95;48.40;100436.06;1723063;80;21116;-82
2022/06/08 04:43:20;;;;;;;9.65;4.33;;;;;;;24.93;48.51;100438.41;1710642;82;21127;-84
2022/06/08 04:45:47;;;;;;;5.72;3.80;;;;;;;24.89;48.67;100429.73;1707647;80;21096;-81
2022/06/08 04:48:13;;;;;;;6.85;4.03;;;;;;;24.88;48.80;100438.66;1705627;81;21053;-83
2022/06/08 04:50:40;;;;;;;7.62;4.50;;;;;;;24.85;48.91;100435.76;1686787;81;21064;-84
2022/06/08 04:53:07;;;;;;;10.58;4.55;;;;;;;24.83;49.07;100440.85;1706768;82;21111;-84
2022/06/08 04:55:39;;;;;;;10.93;4.30;;;;;;;24.81;49.20;100437.63;1703700;82;21056;-83
2022/06/08 04:58:06;;;;;;;6.80;4.08;;;;;;;24.73;49.42;100444.98;1699663;82;21630;-83
2022/06/08 05:00:32;;;;;;;7.22;4.20;;;;;;;24.63;49.61;100457.17;1705358;82;21076;-81
2022/06/08 05:02:59;;;;;;;10.18;4.37;;;;;;;24.62;49.75;100450.80;1702824;80;21044;-84
2022/06/08 05:05:29;;;;;;;6.87;3.98;;;;;;;24.59;49.88;100448.73;1703080;82;21518;-84
2022/06/08 05:07:56;;;;;;;;;;;;;;;24.58;49.96;100449.31;1708089;82;21037;-83
2022/06/08 05:10:24;;;;;;;7.65;4.30;;;;;;;24.58;50.01;100456.27;1729794;82;22158;-81
2022/06/08 05:12:51;;;;;;;10.82;5.87;;;;;;;24.58;49.95;100444.32;1712396;81;21033;-82
2022/06/08 05:15:25;;;;;;;11.88;6.00;;;;;;;24.59;50.04;100437.60;1699951;82;21208;-85
2022/06/08 05:17:51;;;;;;;9.30;5.08;;;;;;;24.61;50.06;100435.30;1710994;81;21245;-83
2022/06/08 05:20:25;;;;;;;8.38;5.20;;;;;;;24.63;50.07;100438.52;1690538;81;21060;-89
2022/06/08 05:22:49;;;;;;;10.58;5.37;;;;;;;24.65;50.12;100446.52;1718374;81;21266;-87
2022/06/08 05:25:29;;;;;;;7.50;5.62;;;;;;;24.68;50.14;100454.96;1735815;81;21048;-84
2022/06/08 05:27:57;;;;;;;9.65;5.15;;;;;;;24.70;50.14;100446.23;1710472;81;21048;-87
2022/06/08 05:30:25;;;;;;;12.93;7.58;;;;;;;24.72;50.15;100459.23;1692720;81;21105;-84
2022/06/08 05:32:52;;;;;;;10.58;5.33;;;;;;;24.73;50.18;100456.68;1722632;80;21549;-82
2022/06/08 05:35:18;;;;;;;15.25;4.70;;;;;;;24.70;50.25;100460.15;1720210;82;21255;-83
2022/06/08 05:37:47;;;;;;;10.35;4.53;;;;;;;24.69;50.35;100461.34;1719196;81;21044;-85
2022/06/08 05:40:15;;;;;;;7.85;5.12;;;;;;;24.69;50.45;100456.58;1704644;81;21135;-81
2022/06/08 05:42:43;;;;;;;10.95;4.90;;;;;;;24.71;50.49;100458.99;1710200;81;21128;-83
2022/06/08 05:45:18;;;;;;;;;;;;;;;24.74;50.52;100459.09;1662856;81;21051;-85
2022/06/08 05:47:46;;;;;;;5.17;3.55;;;;;;;24.75;50.56;100457.94;1712775;81;21107;-84
2022/06/08 05:50:12;;;;;;;9.40;3.98;;;;;;;24.75;50.51;100459.91;1705278;83;21036;-83
2022/06/08 05:52:39;;;;;;;6.28;3.75;;;;;;;24.70;50.76;100464.32;1707968;82;20942;-79
2022/06/08 05:55:07;;;;;;;13.32;3.92;;;;;;;24.61;51.15;100463.11;1695660;82;21052;-80
2022/06/08 05:57:34;;;;;;;7.92;3.67;;;;;;;24.50;51.17;100462.78;1707959;81;21210;-79
2022/06/08 06:00:01;;;;;;;7.25;3.20;;;;;;;24.47;51.25;100461.29;1704933;82;21164;-82
2022/06/08 06:02:28;;;;;;;6.90;3.35;;;;;;;24.42;51.24;100462.92;1683750;82;21345;-80
2022/06/08 06:04:54;;;;;;;5.35;3.60;;;;;;;24.35;51.51;100457.97;1696672;82;21552;-80
2022/06/08 06:07:20;;;;;;;9.03;3.20;;;;;;;24.34;51.56;100456.92;1708176;82;21087;-80
2022/06/08 06:09:47;;;;;;;9.75;4.05;;;;;;;24.38;51.56;100453.66;1702587;82;21320;-84
2022/06/08 06:12:13;;;;;;;7.67;3.17;;;;;;;24.42;51.51;100452.61;1697757;82;21273;-84
2022/06/08 06:14:40;;;;;;;8.98;3.40;;;;;;;24.48;51.43;100460.14;1708610;82;21095;-86
2022/06/08 06:17:06;;;;;;;10.30;3.70;;;;;;;24.52;51.33;100455.48;1715940;82;21129;-84
2022/06/08 06:19:34;;;;;;;15.38;3.70;;;;;;;24.57;51.29;100460.77;1689215;82;39512;-82
2022/06/08 06:22:01;;;;;;;16.15;3.58;;;;;;;24.61;51.17;100458.13;1718647;81;21096;-84
2022/06/08 06:24:28;;;;;;;11.78;4.15;;;;;;;24.63;51.08;100459.38;1710196;82;21481;-83
2022/06/08 06:26:59;;;;;;;15.88;3.40;;;;;;;24.64;50.92;100458.80;1710337;81;21197;-84
2022/06/08 06:29:25;;;;;;;12.40;4.20;;;;;;;24.64;50.90;100458.80;1701156;81;21367;-82
2022/06/08 06:32:00;;;;;;;12.43;3.52;;;;;;;24.64;50.95;100458.80;1699688;81;21044;-80
2022/06/08 06:34:29;;;;;;;6.97;2.90;;;;;;;24.66;50.98;100460.05;1707833;81;21654;-82
2022/06/08 06:36:58;;;;;;;9.88;2.90;;;;;;;24.67;50.86;100461.67;1703903;81;21704;-80
2022/06/08 06:39:26;;;;;;;10.15;3.00;;;;;;;24.66;50.74;100459.23;1683923;82;21092;-80
2022/06/08 06:41:53;;;;;;;5.08;2.50;;;;;;;24.63;50.72;100458.56;1690204;82;21065;-83
2022/06/08 06:44:19;;;;;;;11.70;2.95;;;;;;;24.61;50.60;100460.33;1706960;82;21042;-79
2022/06/08 06:46:46;;;;;;;6.40;2.30;;;;;;;24.58;50.57;100454.88;1699527;82;21037;-84
2022/06/08 06:49:13;;;;;;;10.68;3.00;;;;;;;24.55;50.47;100458.37;1690018;82;21116;-84
2022/06/08 06:51:39;;;;;;;9.20;2.52;;;;;;;24.53;50.50;100444.56;1698499;81;21091;-84
2022/06/08 06:54:08;;;;;;;12.73;3.00;;;;;;;24.54;50.63;100444.80;1698613;82;21024;-84
2022/06/08 06:56:35;;;;;;;10.82;2.70;;;;;;;24.56;50.59;100447.48;1674576;84;21151;-83
2022/06/08 06:59:02;;;;;;;10.43;2.75;;;;;;;24.57;50.58;100437.95;1689866;82;21044;-83
2022/06/08 07:01:29;;;;;;;8.20;2.67;;;;;;;24.57;50.53;100435.74;1696658;82;21693;-82
2022/06/08 07:03:56;;;;;;;8.50;2.70;;;;;;;24.56;50.68;100429.40;1702408;82;22278;-82
2022/06/08 07:06:29;;;;;;;10.32;3.05;;;;;;;24.52;50.61;100431.84;1670672;84;21079;-81
2022/06/08 07:09:01;;;;;;;5.67;2.92;;;;;;;24.53;50.70;100433.44;1696540;82;21587;-85
2022/06/08 07:11:40;;;;;;;14.45;3.47;;;;;;;24.56;50.75;100429.98;1693396;82;21064;-86
2022/06/08 07:14:05;;;;;;;17.35;7.42;;;;;;;24.58;50.65;100427.06;1699286;82;21109;-83
2022/06/08 07:16:32;;;;;;;12.53;5.60;;;;;;;24.62;50.66;100434.69;1696745;83;21045;-83
2022/06/08 07:18:59;;;;;;;11.43;6.08;;;;;;;24.65;50.64;100429.25;1693025;83;21062;-83
2022/06/08 07:21:26;;;;;;;11.70;4.40;;;;;;;24.71;50.58;100433.95;1693091;82;21004;-82
2022/06/08 07:23:53;;;;;;;7.42;4.28;;;;;;;24.73;50.45;100437.20;1706731;82;21044;-82
2022/06/08 07:26:19;;;;;;;9.73;4.00;;;;;;;24.75;50.34;100438.45;1711169;81;21075;-85
2022/06/08 07:28:46;;;;;;;13.05;6.20;;;;;;;24.77;50.27;100443.10;1723145;80;21096;-83
2022/06/08 07:31:12;;;;;;;8.70;3.92;;;;;;;24.80;50.22;100438.79;1721197;81;21871;-83
2022/06/08 07:33:40;;;;;;;17.70;7.50;;;;;;;24.82;50.09;100444.24;1683866;82;21134;-82
2022/06/08 07:36:07;;;;;;;10.43;4.80;;;;;;;24.85;50.18;100447.73;1719809;81;21067;-80
2022/06/08 07:38:33;;;;;;;9.85;3.92;;;;;;;24.86;50.08;100444.37;1709679;80;21119;-81
2022/06/08 07:41:00;;;;;;;12.98;4.25;;;;;;;24.86;49.99;100452.72;1715393;81;21035;-81
2022/06/08 07:43:26;;;;;;;7.87;3.50;;;;;;;24.86;49.91;100445.76;1704157;82;21023;-85
2022/06/08 07:45:52;;;;;;;10.80;3.47;;;;;;;24.86;49.85;100442.41;1719947;81;21116;-80
2022/06/08 07:51:04;;;;;;;13.03;3.37;;;;;;;24.84;49.85;100436.91;1729533;81;21107;-84
2022/06/08 07:53:34;;;;;;;9.00;3.58;;;;;;;24.83;50.06;100432.50;1720166;81;21600;-82
2022/06/08 07:56:01;;;;;;;11.40;3.50;;;;;;;24.85;50.20;100431.03;1712618;81;21037;-86
2022/06/08 07:58:27;;;;;;;13.90;3.60;;;;;;;24.86;50.26;100424.89;1715863;82;21095;-84
2022/06/08 08:00:53;;;;;;;14.23;3.15;;;;;;;24.88;50.42;100425.33;1714995;82;21118;-85
2022/06/08 08:03:21;;;;;;;9.83;3.50;;;;;;;24.90;50.45;100429.97;1714365;82;21145;-86
2022/06/08 08:05:51;;;;;;;15.90;3.47;;;;;;;24.90;50.40;100429.39;1714383;82;21099;-80
2022/06/08 08:08:19;;;;;;;10.10;3.42;;;;;;;24.93;50.61;100429.25;1697904;82;21087;-79
2022/06/08 08:10:46;;;;;;;12.93;3.35;;;;;;;24.95;50.65;100431.11;1716979;80;21276;-83
2022/06/08 08:13:13;;;;;;;8.58;2.95;;;;;;;24.95;50.51;100435.28;1710005;80;21373;-80
2022/06/08 08:15:40;;;;;;;8.90;2.98;;;;;;;24.95;50.50;100433.28;1709822;81;21118;-81
2022/06/08 08:18:13;;;;;;;6.47;2.50;;;;;;;24.93;50.28;100425.89;1718775;80;22051;-80
2022/06/08 08:20:39;;;;;;;5.95;2.40;;;;;;;24.92;50.06;100429.83;1709758;82;21100;-80
2022/06/08 08:23:06;;;;;;;3.72;2.10;;;;;;;24.91;49.83;100426.81;1708036;81;21067;-79
2022/06/08 08:25:36;;;;;;;3.87;2.10;;;;;;;24.91;49.57;100419.05;1704512;80;21310;-80
2022/06/08 08:28:03;;;;;;;7.17;2.42;;;;;;;24.90;49.36;100421.62;1692882;82;21178;-80
2022/06/08 08:30:30;;;;;;;5.25;1.90;;;;;;;24.89;49.29;100418.03;1685159;82;21108;-79
2022/06/08 08:32:56;;;;;;;6.95;1.90;;;;;;;24.92;49.22;100417.89;1684710;82;21148;-79
2022/06/08 08:35:24;;;;;;;6.78;2.00;;;;;;;24.93;48.96;100418.12;1699850;81;21076;-79
2022/06/08 08:37:50;;;;;;;5.58;1.90;;;;;;;24.93;48.77;100413.94;1710833;81;21002;-79
2022/06/08 08:40:28;;;;;;;5.72;2.02;;;;;;;24.93;48.69;100422.30;1694815;82;21350;-79
2022/06/08 08:42:55;;;;;;;4.15;1.98;;;;;;;24.94;48.62;100418.35;1690512;82;21056;-80
2022/06/08 08:45:21;;;;;;;8.03;2.15;;;;;;;24.95;48.48;100415.80;1679036;82;21610;-80
2022/06/08 08:48:09;;;;;;;3.72;1.72;;;;;;;24.97;48.40;100414.84;1687244;82;21116;-80
2022/06/08 08:51:05;;;;;;;9.83;2.42;;;;;;;24.97;48.29;100421.80;1666335;83;21123;-80
2022/06/08 08:53:50;;;;;;;7.72;2.10;;;;;;;24.98;48.25;100416.47;1692524;82;21184;-79
2022/06/08 08:56:22;;;;;;;5.83;1.80;;;;;;;24.98;48.16;100405.34;1682898;83;21066;-80
2022/06/08 08:58:48;;;;;;;9.18;2.12;;;;;;;24.97;48.15;100407.89;1688539;81;21115;-81
2022/06/08 09:01:23;;;;;;;8.83;2.08;;;;;;;24.98;48.28;100408.12;1697871;82;21066;-80
2022/06/08 09:04:05;;;;;;;4.85;1.67;;;;;;;24.99;48.27;100411.14;1701944;82;21624;-80
2022/06/08 09:06:33;;;;;;;5.15;1.80;;;;;;;25.00;48.17;100411.34;1694789;82;21533;-81
2022/06/08 09:09:03;;;;;;;4.67;1.90;;;;;;;25.01;48.12;100407.40;1709054;81;21061;-80
2022/06/08 09:11:36;;;;;;;2.62;1.70;;;;;;;25.01;47.95;100409.61;1690396;82;21148;-79
2022/06/08 09:14:17;;;;;;;7.05;1.87;;;;;;;25.01;47.76;100404.62;1702157;81;21061;-80
2022/06/08 09:16:46;;;;;;;2.22;1.22;;;;;;;25.01;47.66;100405.43;1689534;82;21108;-79
2022/06/08 09:19:31;;;;;;;2.05;1.55;;;;;;;25.01;47.56;100397.66;1687021;81;21237;-79
2022/06/08 09:22:13;;;;;;;2.85;1.40;;;;;;;25.04;47.42;100405.28;1687408;82;21439;-80
2022/06/08 09:25:03;;;;;;;9.10;1.62;;;;;;;25.04;47.39;100398.33;1705271;82;21096;-79
2022/06/08 09:27:36;;;;;;;10.43;1.95;;;;;;;25.08;47.42;100402.02;1685030;82;27318;-82
2022/06/08 09:30:14;;;;;;;6.00;1.77;;;;;;;25.12;47.45;100398.73;1701045;81;21079;-80
2022/06/08 09:32:49;;;;;;;4.92;1.90;;;;;;;25.15;47.44;100396.66;1703172;81;21628;-81
2022/06/08 09:35:23;;;;;;;5.50;1.60;;;;;;;25.18;47.48;100393.14;1682316;83;21037;-79
2022/06/08 09:37:52;;;;;;;5.00;1.80;;;;;;;25.20;47.42;100385.84;1696432;82;21663;-80
2022/06/08 09:40:38;;;;;;;6.37;1.67;;;;;;;25.22;47.29;100385.69;1688653;82;21069;-79
2022/06/08 09:43:19;;;;;;;2.65;1.80;;;;;;;25.21;47.15;100385.45;1683627;84;21137;-79
2022/06/08 09:46:07;;;;;;;3.45;1.52;;;;;;;25.21;46.96;100377.69;1700685;82;21088;-82
2022/06/08 09:52:22;;;;;;;4.80;2.12;;;;;;;25.20;46.81;100376.91;1693072;81;21080;-84
2022/06/08 09:55:03;;;;;;;4.87;1.65;;;;;;;25.20;46.74;100378.88;1676888;83;21219;-79
2022/06/08 09:58:03;;;;;;;2.97;1.53;;;;;;;25.18;46.75;100376.44;1693622;82;21175;-81
2022/06/08 10:00:44;;;;;;;6.65;2.02;;;;;;;25.19;46.72;100370.29;1711106;81;23597;-79
2022/06/08 10:03:47;;;;;;;5.92;1.70;;;;;;;25.18;46.65;100364.48;1709605;81;21039;-78
2022/06/08 10:06:25;;;;;;;4.08;1.80;;;;;;;25.17;46.60;100367.04;1705011;82;21071;-77
2022/06/08 10:09:22;;;;;;;6.65;1.57;;;;;;;25.17;46.52;100364.26;1703872;81;21045;-79
2022/06/08 10:12:29;;;;;;;8.23;1.90;;;;;;;25.16;46.43;100357.91;1692177;82;21060;-79
2022/06/08 10:15:04;;;;;;;4.97;1.82;;;;;;;25.17;46.57;100350.34;1709901;81;22321;-82
2022/06/08 10:17:40;;;;;;;4.70;1.77;;;;;;;25.17;46.64;100349.76;1682244;82;21199;-79
2022/06/08 10:20:17;;;;;;;5.40;2.20;;;;;;;25.19;46.56;100345.23;1689109;84;21081;-79
2022/06/08 10:22:53;;;;;;;3.17;1.80;;;;;;;25.20;46.50;100348.25;1696171;84;21523;-82
2022/06/08 10:25:24;;;;;;;4.35;1.65;;;;;;;25.20;46.47;100342.10;1689229;81;21535;-83
2022/06/08 10:27:57;;;;;;;4.20;1.60;;;;;;;25.18;46.26;100338.85;1699265;83;21068;-79
2022/06/08 10:30:44;;;;;;;5.25;1.70;;;;;;;25.20;46.15;100339.89;1680588;80;21262;-85
2022/06/08 10:33:24;;;;;;;2.80;1.67;;;;;;;25.18;46.09;100334.68;1744777;80;21292;-80
2022/06/08 10:35:55;;;;;;;4.45;1.87;;;;;;;25.20;46.05;100339.89;1741025;82;21845;-86
2022/06/08 10:38:32;;;;;;;3.75;1.70;;;;;;;25.21;46.02;100331.16;1717281;83;21108;-79
2022/06/08 10:42:38;;;;;;;2.35;1.70;;;;;;;25.21;45.92;100333.95;1719541;81;22480;-78
2022/06/08 10:43:34;;;;;;;4.20;1.50;;;;;;;25.20;45.90;100322.61;1704336;81;21087;-78
2022/06/08 10:46:05;;;;;;;2.77;1.50;;;;;;;25.21;45.95;100322.81;1732624;80;21027;-77
2022/06/08 10:48:36;;;;;;;4.50;1.70;;;;;;;25.23;46.29;100321.88;1709270;81;21820;-81
2022/06/08 10:51:17;;;;;;;4.22;1.80;;;;;;;25.25;46.28;100322.31;1718314;82;21056;-82
2022/06/08 10:56:40;;;;;;;4.72;1.90;;;;;;;25.27;46.30;100305.26;1715936;81;21106;-80
2022/06/08 10:59:15;;;;;;;4.92;1.67;;;;;;;25.26;46.34;100307.23;1715277;81;21122;-81
2022/06/08 11:01:57;;;;;;;5.65;1.82;;;;;;;25.28;46.34;100311.06;1711225;81;21073;-80
2022/06/08 11:04:32;;;;;;;2.25;1.50;;;;;;;25.27;46.32;100308.85;1701361;82;21293;-78
2022/06/08 11:07:10;;;;;;;2.95;1.47;;;;;;;25.27;46.30;100303.28;1727308;82;22009;-82
2022/06/08 11:09:43;;;;;;;7.37;2.55;;;;;;;25.29;46.23;100304.33;1719940;81;21060;-76
2022/06/08 11:12:19;;;;;;;6.33;1.98;;;;;;;25.27;46.08;100301.08;1698644;82;21092;-78
2022/06/08 11:14:57;;;;;;;4.00;1.95;;;;;;;25.28;45.98;100295.16;1689899;82;21553;-79
2022/06/08 11:17:45;;;;;;;7.95;1.52;;;;;;;25.28;45.94;100290.98;1719848;82;21050;-79
2022/06/08 11:20:32;;;;;;;11.45;1.80;;;;;;;25.31;45.91;100291.64;1680682;81;21355;-78
2022/06/08 11:23:31;;;;;;;6.67;1.62;;;;;;;25.32;45.89;100289.09;1689461;81;21107;-81
2022/06/08 11:26:25;;;;;;;5.28;1.62;;;;;;;25.34;45.87;100290.10;1691620;82;21116;-79
2022/06/08 11:29:21;;;;;;;6.58;1.52;;;;;;;25.33;45.82;100283.72;1698956;82;21103;-82
2022/06/08 11:31:52;;;;;;;3.27;1.60;;;;;;;25.33;45.70;100287.12;1709887;81;22009;-80
2022/06/08 11:34:50;;;;;;;4.78;1.50;;;;;;;25.32;45.56;100280.73;1704976;82;21127;-80
2022/06/08 11:37:48;;;;;;;3.50;1.80;;;;;;;25.33;45.48;100287.12;1642552;85;21054;-79
2022/06/08 11:40:25;;;;;;;4.50;1.62;;;;;;;25.32;45.49;100273.77;1630695;82;21145;-80
2022/06/08 11:42:56;;;;;;;4.55;1.80;;;;;;;25.33;45.55;100275.37;1683945;83;21079;-78
2022/06/08 11:45:39;;;;;;;2.70;1.60;;;;;;;25.34;45.63;100276.98;1689726;83;21168;-78
2022/06/08 11:50:55;;;;;;;4.80;1.72;;;;;;;25.39;45.52;100282.28;1870512;74;22196;-78
2022/06/08 11:53:31;;;;;;;2.80;1.82;;;;;;;25.36;45.56;100284.99;1818704;76;21008;-79
2022/06/08 11:56:22;;;;;;;3.22;1.62;;;;;;;25.35;45.55;100281.40;1821342;77;21085;-78
2022/06/08 11:58:52;;;;;;;6.90;1.60;;;;;;;25.36;45.47;100280.23;1824793;77;21064;-79
2022/06/08 12:01:22;;;;;;;5.42;1.60;;;;;;;25.36;45.35;100287.20;1802684;78;21105;-80
2022/06/08 12:03:58;;;;;;;6.75;1.90;;;;;;;25.37;45.28;100286.03;1822533;76;21395;-79
2022/06/08 12:06:38;;;;;;;4.72;1.70;;;;;;;25.37;45.23;100281.05;1812544;77;20920;-79